Time;durP1;ratioP1;P1;durP2;ratioP2;P2;SDS_P1;SDS_P2;PMS_P1;PMS_P2;Temp;Humidity;BMP_temperature;BMP_pressure;BME280_temperature;BME280_humidity;BME280_pressure;Samples;Min_cycle;Max_cycle;Signal;HPM_P1;HPM_P2
2023/11/19 00:00:23;;;;;;;6.75;3.83;;;6.60;99.90;;;;;;4962770;28;20411;-63
2023/11/19 00:02:49;;;;;;;7.55;3.72;;;6.60;99.90;;;;;;4962961;28;20031;-64
2023/11/19 00:05:15;;;;;;;6.55;3.97;;;6.60;99.90;;;;;;4961235;28;20031;-63
2023/11/19 00:07:41;;;;;;;5.57;3.55;;;6.60;99.90;;;;;;4963840;28;20030;-64
2023/11/19 00:10:09;;;;;;;5.38;3.47;;;6.60;99.90;;;;;;4948247;28;20027;-63
2023/11/19 00:12:40;;;;;;;6.93;3.72;;;6.50;99.90;;;;;;4963451;28;20130;-63
2023/11/19 00:15:11;;;;;;;5.70;3.63;;;6.50;99.90;;;;;;4958378;28;20046;-64
2023/11/19 00:17:44;;;;;;;5.25;3.78;;;6.50;99.90;;;;;;4962507;28;20035;-63
2023/11/19 00:20:17;;;;;;;9.40;3.95;;;6.50;99.90;;;;;;4958750;28;20129;-63
2023/11/19 00:22:44;;;;;;;5.32;3.70;;;6.50;99.90;;;;;;4965132;28;20113;-63
2023/11/19 00:25:10;;;;;;;7.82;3.83;;;6.60;99.90;;;;;;4962577;28;20568;-64
2023/11/19 00:27:37;;;;;;;5.65;3.72;;;6.70;99.90;;;;;;4961365;28;20548;-64
2023/11/19 00:30:10;;;;;;;7.18;4.00;;;6.70;99.90;;;;;;4947960;28;20103;-64
2023/11/19 00:32:38;;;;;;;8.52;3.42;;;6.60;99.90;;;;;;4950234;28;20061;-63
2023/11/19 00:35:05;;;;;;;8.00;4.32;;;6.60;99.90;;;;;;4945598;28;20637;-64
2023/11/19 00:37:32;;;;;;;7.03;3.53;;;6.60;99.90;;;;;;4943787;28;20039;-63
2023/11/19 00:39:58;;;;;;;7.57;4.22;;;6.60;99.90;;;;;;4949651;28;20038;-63
2023/11/19 00:42:24;;;;;;;6.60;3.80;;;6.60;99.90;;;;;;4944111;28;20608;-63
2023/11/19 00:44:51;;;;;;;5.43;3.78;;;6.60;99.90;;;;;;4962387;28;20510;-63
2023/11/19 00:47:20;;;;;;;7.53;3.40;;;6.70;99.90;;;;;;4959858;28;20431;-64
2023/11/19 00:49:50;;;;;;;8.43;3.72;;;6.60;99.90;;;;;;4943910;28;20443;-63
2023/11/19 00:52:16;;;;;;;6.22;3.53;;;6.70;99.90;;;;;;4943859;28;20037;-63
2023/11/19 00:54:43;;;;;;;6.90;3.50;;;6.60;99.90;;;;;;4962314;28;20031;-64
2023/11/19 00:57:09;;;;;;;5.13;3.70;;;6.70;99.90;;;;;;4962306;28;20035;-63
2023/11/19 00:59:35;;;;;;;6.68;3.40;;;6.70;99.90;;;;;;4962903;28;20065;-63
2023/11/19 01:02:04;;;;;;;3.50;2.97;;;6.70;99.90;;;;;;4958105;28;20055;-64
2023/11/19 01:04:35;;;;;;;6.55;3.30;;;6.70;99.90;;;;;;4963498;28;20070;-63
2023/11/19 01:07:04;;;;;;;7.00;3.03;;;6.80;99.90;;;;;;4940780;28;20031;-64
2023/11/19 01:09:34;;;;;;;5.88;3.40;;;6.80;99.90;;;;;;4963214;28;20792;-63
2023/11/19 01:12:01;;;;;;;6.10;3.22;;;6.90;99.90;;;;;;4945771;28;20039;-64
2023/11/19 01:14:30;;;;;;;4.55;2.90;;;6.90;99.90;;;;;;4945141;28;20074;-63
2023/11/19 01:16:56;;;;;;;5.15;3.47;;;6.80;99.90;;;;;;4959099;28;20031;-63
2023/11/19 01:19:24;;;;;;;5.53;3.20;;;6.90;99.90;;;;;;4944446;28;20038;-63
2023/11/19 01:21:51;;;;;;;13.20;3.25;;;6.80;99.90;;;;;;4956000;28;20799;-63
2023/11/19 01:24:17;;;;;;;7.45;3.80;;;6.70;99.90;;;;;;4945719;28;20046;-63
2023/11/19 01:26:47;;;;;;;7.28;3.00;;;6.70;99.90;;;;;;4941322;28;20045;-63
2023/11/19 01:29:16;;;;;;;5.05;3.50;;;6.70;99.90;;;;;;4961958;28;20150;-63
2023/11/19 01:31:43;;;;;;;4.68;3.15;;;6.80;99.90;;;;;;4940337;28;20031;-63
2023/11/19 01:34:10;;;;;;;5.00;3.20;;;6.80;99.90;;;;;;4948111;28;20494;-64
2023/11/19 01:36:35;;;;;;;4.75;2.60;;;6.70;99.90;;;;;;4960598;28;20041;-63
2023/11/19 01:39:02;;;;;;;4.75;3.20;;;6.70;99.90;;;;;;4963614;28;20039;-63
2023/11/19 01:41:28;;;;;;;5.80;2.78;;;6.60;99.90;;;;;;4960800;28;20113;-64
2023/11/19 01:43:54;;;;;;;3.33;2.80;;;6.60;99.90;;;;;;4946675;28;20125;-63
2023/11/19 01:46:20;;;;;;;4.35;3.20;;;6.60;99.90;;;;;;4944889;29;20058;-64
2023/11/19 01:48:47;;;;;;;6.30;3.83;;;6.70;99.90;;;;;;4947512;28;20027;-63
2023/11/19 01:51:16;;;;;;;5.45;3.10;;;6.70;99.90;;;;;;4958528;28;20585;-64
2023/11/19 01:53:43;;;;;;;6.53;3.13;;;6.70;99.90;;;;;;4939789;28;20043;-64
2023/11/19 01:56:14;;;;;;;5.13;3.17;;;6.80;99.90;;;;;;4960791;28;20030;-63
2023/11/19 01:58:41;;;;;;;7.28;3.15;;;6.90;99.90;;;;;;4940185;29;20058;-63
2023/11/19 02:01:07;;;;;;;5.10;2.90;;;6.90;99.90;;;;;;4948290;28;20562;-64
2023/11/19 02:03:34;;;;;;;4.63;2.85;;;7.00;99.90;;;;;;4940663;28;20027;-63
2023/11/19 02:06:01;;;;;;;8.05;2.97;;;6.90;99.90;;;;;;4948705;28;20118;-63
2023/11/19 02:08:27;;;;;;;5.18;2.45;;;6.80;99.90;;;;;;4942791;28;20057;-63
2023/11/19 02:10:54;;;;;;;9.02;3.05;;;6.80;99.90;;;;;;4947327;28;20030;-64
2023/11/19 02:13:20;;;;;;;5.03;2.90;;;6.80;99.90;;;;;;4964669;28;20376;-64
2023/11/19 02:15:46;;;;;;;4.32;2.95;;;6.80;99.90;;;;;;4946922;28;20037;-64
2023/11/19 02:18:21;;;;;;;4.90;2.90;;;6.90;99.90;;;;;;4946987;28;20735;-63
2023/11/19 02:20:49;;;;;;;5.95;3.38;;;6.80;99.90;;;;;;4946414;28;20039;-64
2023/11/19 02:23:15;;;;;;;6.20;3.05;;;6.70;99.90;;;;;;4947547;28;20018;-63
2023/11/19 02:25:41;;;;;;;3.78;2.70;;;6.70;99.90;;;;;;4961216;28;20026;-64
2023/11/19 02:28:08;;;;;;;4.40;2.83;;;6.70;99.90;;;;;;4960774;28;20023;-63
2023/11/19 02:30:33;;;;;;;4.97;3.30;;;6.60;99.90;;;;;;4949086;28;20035;-64
2023/11/19 02:33:05;;;;;;;3.80;2.75;;;6.60;99.90;;;;;;4952716;28;20050;-64
2023/11/19 02:35:32;;;;;;;4.57;2.63;;;6.70;99.90;;;;;;4945082;28;20039;-64
2023/11/19 02:38:03;;;;;;;4.43;2.67;;;6.70;99.90;;;;;;4962068;28;20034;-63
2023/11/19 02:40:29;;;;;;;5.35;2.97;;;6.70;99.90;;;;;;4947738;29;20035;-63
2023/11/19 02:42:55;;;;;;;4.43;2.88;;;6.80;99.90;;;;;;4950576;28;20058;-63
2023/11/19 02:45:25;;;;;;;3.53;2.60;;;6.70;99.90;;;;;;4966110;28;20027;-64
2023/11/19 02:47:52;;;;;;;4.45;2.83;;;6.60;99.90;;;;;;4962901;28;20090;-63
2023/11/19 02:50:24;;;;;;;4.82;2.80;;;6.60;99.90;;;;;;4948659;28;20062;-63
2023/11/19 02:52:53;;;;;;;3.78;2.60;;;6.70;99.90;;;;;;4959032;28;20617;-63
2023/11/19 02:55:19;;;;;;;4.38;2.55;;;6.70;99.90;;;;;;4948246;28;20038;-64
2023/11/19 02:57:48;;;;;;;3.92;2.88;;;6.80;99.90;;;;;;4959399;28;20047;-63
2023/11/19 03:00:25;;;;;;;4.32;2.72;;;6.80;99.90;;;;;;4947329;28;20026;-63
2023/11/19 03:02:59;;;;;;;4.03;2.60;;;6.90;99.90;;;;;;4944917;28;20371;-64
2023/11/19 03:05:26;;;;;;;3.50;2.47;;;6.90;99.90;;;;;;4948898;28;20092;-63
2023/11/19 03:07:52;;;;;;;5.00;2.85;;;6.80;99.90;;;;;;4950398;28;20030;-63
2023/11/19 03:10:18;;;;;;;3.65;2.58;;;6.70;99.90;;;;;;4948353;28;20042;-64
2023/11/19 03:12:45;;;;;;;5.82;2.90;;;6.70;99.90;;;;;;4954875;28;20034;-63
2023/11/19 03:15:11;;;;;;;3.97;2.38;;;6.70;99.90;;;;;;4949870;28;20053;-63
2023/11/19 03:17:41;;;;;;;6.00;2.85;;;6.80;99.90;;;;;;4943648;28;20038;-63
2023/11/19 03:20:14;;;;;;;7.32;3.47;;;6.70;99.90;;;;;;4947340;28;20035;-63
2023/11/19 03:22:41;;;;;;;4.88;3.13;;;6.70;99.90;;;;;;4952204;28;20129;-63
2023/11/19 03:25:08;;;;;;;7.32;2.92;;;6.70;99.90;;;;;;4953792;28;20683;-63
2023/11/19 03:27:44;;;;;;;4.85;3.03;;;6.70;99.90;;;;;;4942462;28;20066;-63
2023/11/19 03:30:10;;;;;;;5.82;3.35;;;6.70;99.90;;;;;;4965800;28;20023;-63
2023/11/19 03:32:36;;;;;;;5.28;3.28;;;6.70;99.90;;;;;;4966644;28;20053;-63
2023/11/19 03:35:04;;;;;;;4.68;3.30;;;6.70;99.90;;;;;;4965504;28;20165;-62
2023/11/19 03:37:32;;;;;;;5.60;3.60;;;6.70;99.90;;;;;;4961077;28;20023;-63
2023/11/19 03:39:59;;;;;;;5.88;2.97;;;6.80;99.90;;;;;;4949351;28;20046;-62
2023/11/19 03:42:26;;;;;;;4.20;3.10;;;6.70;99.90;;;;;;4961680;28;20128;-63
2023/11/19 03:44:53;;;;;;;5.63;3.13;;;6.70;99.90;;;;;;4946854;28;20034;-62
2023/11/19 03:47:20;;;;;;;5.85;3.45;;;6.70;99.90;;;;;;4951089;28;20081;-62
2023/11/19 03:49:52;;;;;;;4.18;3.10;;;6.60;99.90;;;;;;4959631;28;20117;-62
2023/11/19 03:52:18;;;;;;;4.63;3.20;;;6.60;99.90;;;;;;4941223;28;20039;-62
2023/11/19 03:54:48;;;;;;;4.13;2.92;;;6.60;99.90;;;;;;4945214;28;20035;-63
2023/11/19 03:57:15;;;;;;;4.80;3.30;;;6.60;99.90;;;;;;4944052;28;20034;-62
2023/11/19 03:59:41;;;;;;;5.55;3.15;;;6.60;99.90;;;;;;4967138;28;20038;-62
2023/11/19 04:02:07;;;;;;;5.70;3.40;;;6.60;99.90;;;;;;4946675;28;20840;-62
2023/11/19 04:04:33;;;;;;;4.07;2.92;;;6.60;99.90;;;;;;4952637;28;20039;-62
2023/11/19 04:07:03;;;;;;;6.28;3.20;;;6.70;99.90;;;;;;4944894;28;20113;-62
2023/11/19 04:09:29;;;;;;;4.97;3.05;;;6.60;99.90;;;;;;4942694;28;20031;-62
2023/11/19 04:11:56;;;;;;;5.50;2.97;;;6.70;99.90;;;;;;4950044;28;20053;-62
2023/11/19 04:14:21;;;;;;;4.88;3.45;;;6.60;99.90;;;;;;4948570;28;20038;-63
2023/11/19 04:16:47;;;;;;;5.10;3.30;;;6.70;99.90;;;;;;4966616;28;20026;-62
2023/11/19 04:19:14;;;;;;;5.00;3.20;;;6.60;99.90;;;;;;4958590;28;20034;-62
2023/11/19 04:21:41;;;;;;;5.32;3.40;;;6.50;99.90;;;;;;4962711;28;20114;-62
2023/11/19 04:24:14;;;;;;;4.40;3.05;;;6.60;99.90;;;;;;4946135;28;20027;-62
2023/11/19 04:26:44;;;;;;;5.75;3.40;;;6.60;99.90;;;;;;4961546;28;20822;-62
2023/11/19 04:29:17;;;;;;;4.40;3.08;;;6.70;99.90;;;;;;4944655;28;20037;-62
2023/11/19 04:31:46;;;;;;;4.45;3.00;;;6.70;99.90;;;;;;4959236;28;20028;-62
2023/11/19 04:34:14;;;;;;;3.92;3.10;;;6.80;99.90;;;;;;4965186;28;20037;-62
2023/11/19 04:36:40;;;;;;;4.22;3.10;;;6.80;99.90;;;;;;4957845;28;20039;-62
2023/11/19 04:39:11;;;;;;;5.70;3.42;;;6.80;99.90;;;;;;4963625;28;20046;-62
2023/11/19 04:41:49;;;;;;;3.83;2.90;;;6.80;99.90;;;;;;4959539;28;20070;-62
2023/11/19 04:44:15;;;;;;;4.38;3.10;;;6.90;99.90;;;;;;4963374;28;20098;-62
2023/11/19 04:46:45;;;;;;;5.22;3.03;;;6.90;99.90;;;;;;4958978;28;20027;-62
2023/11/19 04:49:13;;;;;;;4.82;2.97;;;6.90;99.90;;;;;;4960135;28;20027;-62
2023/11/19 04:51:43;;;;;;;3.25;2.60;;;7.00;99.90;;;;;;4958355;28;20031;-62
2023/11/19 04:54:10;;;;;;;4.13;2.90;;;7.00;99.90;;;;;;4960173;28;20113;-62
2023/11/19 04:56:39;;;;;;;4.20;3.10;;;7.00;99.90;;;;;;4961129;28;20101;-62
2023/11/19 04:59:06;;;;;;;5.03;2.90;;;7.10;99.90;;;;;;4958667;28;20047;-62
2023/11/19 05:01:33;;;;;;;4.57;2.92;;;7.00;99.90;;;;;;4962697;28;20077;-62
2023/11/19 05:03:59;;;;;;;3.90;3.00;;;7.00;99.90;;;;;;4959198;28;20059;-62
2023/11/19 05:06:29;;;;;;;6.07;3.20;;;7.10;99.90;;;;;;4963438;28;20691;-62
2023/11/19 05:08:56;;;;;;;3.30;2.35;;;7.10;99.90;;;;;;4955992;28;20031;-62
2023/11/19 05:11:22;;;;;;;4.20;3.10;;;6.90;99.90;;;;;;4962952;28;20048;-63
2023/11/19 05:13:48;;;;;;;4.00;2.85;;;6.90;99.90;;;;;;4956226;28;20571;-62
2023/11/19 05:16:15;;;;;;;4.05;2.30;;;7.00;99.90;;;;;;4961915;28;20039;-62
2023/11/19 05:18:41;;;;;;;4.18;2.78;;;6.90;99.90;;;;;;4959016;28;20050;-62
2023/11/19 05:21:07;;;;;;;5.53;3.08;;;6.90;99.90;;;;;;4960031;28;20035;-62
2023/11/19 05:23:33;;;;;;;3.42;2.63;;;6.90;99.90;;;;;;4958689;28;20042;-62
2023/11/19 05:26:03;;;;;;;4.10;2.63;;;6.90;99.90;;;;;;4958991;28;20069;-62
2023/11/19 05:28:29;;;;;;;4.28;2.83;;;6.90;99.90;;;;;;4960469;28;20027;-63
2023/11/19 05:30:55;;;;;;;3.80;2.97;;;6.80;99.90;;;;;;4959258;28;20049;-63
2023/11/19 05:33:21;;;;;;;4.75;2.97;;;6.80;99.90;;;;;;4947316;28;20034;-62
2023/11/19 05:35:47;;;;;;;3.63;2.75;;;6.80;99.90;;;;;;4962226;28;20038;-62
2023/11/19 05:38:14;;;;;;;5.18;2.83;;;6.90;99.90;;;;;;4961546;28;20379;-62
2023/11/19 05:40:42;;;;;;;4.40;2.80;;;6.80;99.90;;;;;;4959431;28;20043;-62
2023/11/19 05:43:07;;;;;;;3.75;3.00;;;6.90;99.90;;;;;;4962701;28;20031;-62
2023/11/19 05:45:33;;;;;;;7.07;3.13;;;7.00;99.90;;;;;;4957273;28;20042;-62
2023/11/19 05:47:59;;;;;;;4.47;3.13;;;7.10;99.90;;;;;;4962513;28;20129;-62
2023/11/19 05:50:25;;;;;;;4.85;3.28;;;7.00;99.90;;;;;;4959438;28;20027;-62
2023/11/19 05:52:52;;;;;;;5.63;2.97;;;7.00;99.90;;;;;;4961852;28;20088;-62
2023/11/19 05:55:19;;;;;;;3.58;2.40;;;7.00;99.90;;;;;;4958787;28;20043;-63
2023/11/19 05:57:45;;;;;;;5.50;2.95;;;7.00;99.90;;;;;;4960815;28;20499;-62
2023/11/19 06:00:12;;;;;;;4.25;2.78;;;7.00;99.90;;;;;;4961181;28;20085;-62
2023/11/19 06:02:39;;;;;;;4.00;2.85;;;7.00;99.90;;;;;;4963455;28;20046;-63
2023/11/19 06:05:06;;;;;;;5.25;2.92;;;7.00;99.90;;;;;;4966448;28;20037;-62
2023/11/19 06:07:36;;;;;;;3.83;3.03;;;7.10;99.90;;;;;;4957114;28;20086;-63
2023/11/19 06:10:05;;;;;;;3.65;2.95;;;7.10;99.90;;;;;;4959700;28;20042;-62
2023/11/19 06:12:31;;;;;;;4.10;3.13;;;7.10;99.90;;;;;;4959685;28;20031;-62
2023/11/19 06:14:57;;;;;;;2.88;2.38;;;7.00;99.90;;;;;;4963046;28;20592;-62
2023/11/19 06:17:23;;;;;;;5.85;2.70;;;7.10;99.90;;;;;;4961830;28;20046;-62
2023/11/19 06:19:49;;;;;;;3.40;2.60;;;7.10;99.90;;;;;;4965519;28;20046;-62
2023/11/19 06:22:15;;;;;;;3.90;2.67;;;7.10;99.90;;;;;;4962435;28;20439;-62
2023/11/19 06:24:41;;;;;;;3.63;2.53;;;7.10;99.90;;;;;;4962920;28;20035;-62
2023/11/19 06:27:07;;;;;;;5.00;3.08;;;7.20;99.90;;;;;;4962274;28;20031;-63
2023/11/19 06:29:33;;;;;;;4.20;3.28;;;7.20;99.90;;;;;;4961584;28;20027;-62
2023/11/19 06:31:59;;;;;;;3.22;2.58;;;7.10;99.90;;;;;;4959579;28;20033;-63
2023/11/19 06:34:25;;;;;;;2.35;2.03;;;7.00;99.90;;;;;;4967643;28;20089;-63
2023/11/19 06:36:50;;;;;;;3.47;2.65;;;7.00;99.90;;;;;;4959494;28;20031;-63
2023/11/19 06:39:17;;;;;;;4.53;2.50;;;7.00;99.90;;;;;;4968526;28;20030;-62
2023/11/19 06:41:46;;;;;;;3.63;2.58;;;7.00;99.90;;;;;;4962531;28;20707;-62
2023/11/19 06:44:13;;;;;;;2.95;2.50;;;7.00;99.90;;;;;;4962505;28;20034;-63
2023/11/19 06:46:39;;;;;;;3.83;2.60;;;7.00;99.90;;;;;;4963979;28;20031;-62
2023/11/19 06:49:05;;;;;;;3.58;2.63;;;7.00;99.90;;;;;;4958924;28;20102;-62
2023/11/19 06:51:31;;;;;;;3.97;2.42;;;7.00;99.90;;;;;;4968873;28;20038;-62
2023/11/19 06:53:57;;;;;;;4.22;2.70;;;7.10;99.90;;;;;;4962050;28;20685;-63
2023/11/19 06:56:24;;;;;;;5.75;3.17;;;7.10;99.90;;;;;;4964403;28;20026;-63
2023/11/19 06:58:50;;;;;;;4.65;2.92;;;7.20;99.90;;;;;;4963388;28;20042;-63
2023/11/19 07:01:17;;;;;;;5.03;2.97;;;7.30;99.90;;;;;;4950731;28;20031;-63
2023/11/19 07:03:47;;;;;;;3.15;2.33;;;7.30;99.90;;;;;;4961047;28;20043;-63
2023/11/19 07:06:13;;;;;;;3.40;2.70;;;7.40;99.90;;;;;;4959661;28;20059;-63
2023/11/19 07:08:41;;;;;;;3.05;2.38;;;7.30;99.90;;;;;;4948683;28;20027;-63
2023/11/19 07:11:09;;;;;;;3.72;1.98;;;7.40;99.90;;;;;;4964358;28;20412;-63
2023/11/19 07:13:35;;;;;;;3.47;2.65;;;7.40;99.90;;;;;;4961190;28;20112;-63
2023/11/19 07:16:02;;;;;;;4.82;2.88;;;7.50;99.90;;;;;;4959091;28;20037;-63
2023/11/19 07:18:28;;;;;;;3.90;2.65;;;7.50;99.90;;;;;;4960485;28;20041;-63
2023/11/19 07:20:54;;;;;;;3.55;2.70;;;7.60;99.90;;;;;;4960478;28;20690;-63
2023/11/19 07:23:21;;;;;;;5.28;2.78;;;7.70;99.90;;;;;;4962219;28;20031;-63
2023/11/19 07:25:47;;;;;;;4.32;2.88;;;7.70;99.90;;;;;;4968131;28;20094;-63
2023/11/19 07:28:14;;;;;;;3.55;2.80;;;7.70;99.90;;;;;;4959792;28;20027;-63
2023/11/19 07:30:40;;;;;;;3.22;2.15;;;7.80;99.90;;;;;;4962316;28;20441;-63
2023/11/19 07:33:06;;;;;;;4.05;2.83;;;7.90;99.90;;;;;;4947735;28;20039;-63
2023/11/19 07:35:32;;;;;;;3.08;2.53;;;8.00;99.90;;;;;;4947909;28;20035;-63
2023/11/19 07:37:58;;;;;;;3.25;2.30;;;8.00;99.90;;;;;;4961570;28;20133;-63
2023/11/19 07:40:24;;;;;;;5.72;2.40;;;8.10;99.90;;;;;;4958297;28;20488;-63
2023/11/19 07:42:51;;;;;;;3.40;2.55;;;8.10;99.90;;;;;;4961329;28;20125;-63
2023/11/19 07:45:17;;;;;;;3.20;2.35;;;8.20;99.90;;;;;;4958497;28;20042;-63
2023/11/19 07:47:44;;;;;;;3.22;2.25;;;8.30;99.90;;;;;;4969630;28;20082;-62
2023/11/19 07:50:13;;;;;;;3.33;2.40;;;8.30;99.90;;;;;;4962991;28;20034;-63
2023/11/19 07:52:39;;;;;;;3.65;2.47;;;8.30;99.90;;;;;;4951974;28;20050;-63
2023/11/19 07:55:05;;;;;;;4.00;2.75;;;8.30;99.90;;;;;;4962980;28;20031;-63
2023/11/19 07:57:31;;;;;;;3.15;2.47;;;8.40;99.90;;;;;;4960467;28;20041;-63
2023/11/19 07:59:58;;;;;;;2.45;2.17;;;8.50;99.90;;;;;;4960360;28;20042;-64
2023/11/19 08:02:23;;;;;;;2.47;2.00;;;8.50;99.90;;;;;;4959957;28;20036;-63
2023/11/19 08:04:51;;;;;;;3.47;1.73;;;8.50;99.90;;;;;;4960884;28;20038;-63
2023/11/19 08:07:20;;;;;;;2.80;2.22;;;8.60;99.90;;;;;;4962779;28;20105;-63
2023/11/19 08:09:47;;;;;;;4.90;2.60;;;8.70;99.90;;;;;;4964090;28;20031;-64
2023/11/19 08:12:15;;;;;;;2.05;1.85;;;8.80;99.90;;;;;;4959732;28;20019;-63
2023/11/19 08:14:43;;;;;;;3.10;2.28;;;8.80;99.90;;;;;;4963213;28;20042;-64
2023/11/19 08:17:09;;;;;;;3.22;2.08;;;8.80;99.90;;;;;;4961729;28;20104;-63
2023/11/19 08:19:35;;;;;;;2.40;2.00;;;8.80;99.90;;;;;;4961996;28;20031;-65
2023/11/19 08:22:02;;;;;;;4.35;1.90;;;8.90;99.90;;;;;;4958231;28;20535;-63
2023/11/19 08:24:28;;;;;;;2.47;1.70;;;9.00;99.90;;;;;;4961371;28;20022;-62
2023/11/19 08:26:54;;;;;;;2.15;1.55;;;9.20;99.90;;;;;;4961228;28;20031;-62
2023/11/19 08:29:20;;;;;;;2.55;1.50;;;9.30;99.90;;;;;;4961197;28;20050;-62
2023/11/19 08:31:45;;;;;;;2.38;1.73;;;9.30;99.90;;;;;;4965765;28;20061;-62
2023/11/19 08:34:11;;;;;;;2.15;1.60;;;9.40;99.90;;;;;;4941813;28;20070;-62
2023/11/19 08:36:37;;;;;;;1.92;1.30;;;9.40;99.90;;;;;;4962277;28;20138;-62
2023/11/19 08:39:03;;;;;;;1.83;1.73;;;9.50;99.90;;;;;;4960107;28;20093;-62
2023/11/19 08:41:29;;;;;;;1.98;1.40;;;9.60;99.90;;;;;;4961397;28;20110;-62
2023/11/19 08:43:55;;;;;;;2.78;2.15;;;9.60;99.90;;;;;;4961509;28;20031;-62
2023/11/19 08:46:21;;;;;;;1.90;1.40;;;9.60;99.90;;;;;;4959058;28;20034;-62
2023/11/19 08:48:47;;;;;;;2.65;1.85;;;9.70;99.90;;;;;;4944846;28;20058;-62
2023/11/19 08:51:13;;;;;;;1.58;1.45;;;9.60;99.90;;;;;;4962222;28;20122;-62
2023/11/19 08:53:39;;;;;;;1.20;1.10;;;9.60;99.90;;;;;;4959841;28;20779;-62
2023/11/19 08:56:05;;;;;;;1.58;1.48;;;9.60;99.90;;;;;;4957797;28;20031;-62
2023/11/19 08:58:32;;;;;;;2.17;1.70;;;9.60;99.90;;;;;;4960409;28;20086;-62
2023/11/19 09:00:58;;;;;;;2.72;1.60;;;9.70;99.90;;;;;;4959857;28;20070;-62
2023/11/19 09:03:26;;;;;;;2.58;1.83;;;9.80;99.90;;;;;;4959573;28;20142;-62
2023/11/19 09:05:52;;;;;;;2.47;1.50;;;9.80;99.90;;;;;;4945743;28;20031;-62
2023/11/19 09:08:18;;;;;;;4.55;1.30;;;9.90;99.90;;;;;;4942574;28;20153;-62
2023/11/19 09:10:44;;;;;;;5.45;2.30;;;9.90;99.90;;;;;;4957141;28;20043;-62
2023/11/19 09:13:10;;;;;;;6.90;5.22;;;10.70;99.90;;;;;;4946972;28;20058;-62
2023/11/19 09:15:35;;;;;;;3.88;3.00;;;11.90;99.90;;;;;;4955514;28;20122;-62
2023/11/19 09:18:01;;;;;;;2.45;1.70;;;13.10;99.90;;;;;;4961401;28;20030;-62
2023/11/19 09:20:27;;;;;;;3.58;1.98;;;14.30;99.90;;;;;;4958044;28;20026;-62
2023/11/19 09:22:53;;;;;;;4.75;1.20;;;15.10;99.90;;;;;;4960150;28;20054;-67
2023/11/19 09:25:19;;;;;;;1.77;1.23;;;15.20;99.90;;;;;;4962044;28;20042;-66
2023/11/19 09:27:45;;;;;;;1.20;0.80;;;14.90;99.90;;;;;;4959173;28;20042;-67
2023/11/19 09:30:12;;;;;;;4.13;1.10;;;15.10;99.90;;;;;;4962125;28;20039;-67
2023/11/19 09:32:39;;;;;;;1.35;1.00;;;15.60;99.90;;;;;;4964133;28;20038;-66
2023/11/19 09:35:06;;;;;;;1.52;1.40;;;16.20;99.60;;;;;;4958917;28;20042;-66
2023/11/19 09:37:32;;;;;;;4.25;1.08;;;16.50;99.00;;;;;;4960008;28;20038;-66
2023/11/19 09:39:59;;;;;;;2.72;1.90;;;16.60;98.00;;;;;;4962085;28;20043;-67
2023/11/19 09:42:25;;;;;;;1.63;1.25;;;16.60;98.10;;;;;;4958628;28;20142;-67
2023/11/19 09:44:52;;;;;;;2.85;1.10;;;16.80;98.70;;;;;;4958930;28;20035;-67
2023/11/19 09:47:20;;;;;;;6.18;1.35;;;17.30;97.40;;;;;;4957650;28;20137;-67
2023/11/19 09:49:47;;;;;;;2.80;1.33;;;17.90;96.50;;;;;;4962590;28;20104;-64
2023/11/19 09:52:14;;;;;;;4.28;1.33;;;18.00;96.00;;;;;;4959081;28;20047;-64
2023/11/19 09:54:40;;;;;;;1.88;1.65;;;18.60;95.30;;;;;;4961272;28;20090;-64
2023/11/19 09:57:09;;;;;;;4.95;2.05;;;18.70;94.90;;;;;;4958326;28;20558;-64
2023/11/19 09:59:38;;;;;;;6.38;2.10;;;18.50;94.60;;;;;;4961182;28;20034;-64
2023/11/19 10:02:04;;;;;;;4.85;1.73;;;18.40;94.80;;;;;;4959876;28;20034;-64
2023/11/19 10:04:32;;;;;;;5.53;1.75;;;18.10;95.20;;;;;;4959525;28;20042;-64
2023/11/19 10:06:58;;;;;;;6.40;1.75;;;17.50;96.20;;;;;;4963138;28;20035;-64
2023/11/19 10:09:24;;;;;;;5.63;2.00;;;17.20;97.00;;;;;;4960706;28;20023;-64
2023/11/19 10:11:50;;;;;;;8.98;3.47;;;17.40;96.60;;;;;;4963748;28;20491;-64
2023/11/19 10:14:18;;;;;;;11.23;3.70;;;17.20;96.80;;;;;;4962644;28;20046;-63
2023/11/19 10:16:46;;;;;;;8.82;4.00;;;16.70;97.40;;;;;;4963270;28;20121;-63
2023/11/19 10:19:20;;;;;;;3.38;1.83;;;16.30;98.60;;;;;;4957014;28;20078;-64
2023/11/19 10:21:46;;;;;;;5.82;1.42;;;15.90;99.10;;;;;;4960084;28;20085;-63
2023/11/19 10:24:12;;;;;;;5.50;2.20;;;15.50;99.90;;;;;;4940670;28;20108;-63
2023/11/19 10:26:40;;;;;;;5.40;1.92;;;15.20;99.90;;;;;;4959813;28;20138;-63
2023/11/19 10:29:06;;;;;;;5.15;2.00;;;14.90;99.90;;;;;;4960887;28;20566;-63
2023/11/19 10:31:31;;;;;;;7.38;1.83;;;14.60;99.90;;;;;;4939336;28;20073;-63
2023/11/19 10:33:57;;;;;;;3.10;1.50;;;14.10;99.90;;;;;;4963240;28;20034;-63
2023/11/19 10:36:38;;;;;;;4.07;1.10;;;13.80;99.90;;;;;;4958181;28;20031;-63
2023/11/19 10:39:04;;;;;;;11.43;2.05;;;13.80;99.90;;;;;;4962193;28;20491;-63
2023/11/19 10:41:32;;;;;;;5.25;1.48;;;13.60;99.90;;;;;;4957256;28;20054;-63
2023/11/19 10:43:59;;;;;;;4.90;1.80;;;13.50;99.90;;;;;;4965266;28;20089;-63
2023/11/19 10:46:40;;;;;;;6.85;1.98;;;13.40;99.90;;;;;;4957742;28;20029;-63
2023/11/19 10:49:09;;;;;;;8.40;2.63;;;13.40;99.90;;;;;;4963890;28;20027;-64
2023/11/19 10:51:35;;;;;;;9.95;2.78;;;13.40;99.90;;;;;;4956860;28;20134;-64
2023/11/19 10:54:06;;;;;;;10.50;2.20;;;13.30;99.90;;;;;;4959739;28;20050;-63
2023/11/19 10:56:35;;;;;;;12.55;1.80;;;13.00;99.90;;;;;;4957242;28;20507;-63
2023/11/19 10:59:05;;;;;;;10.25;2.65;;;13.00;99.90;;;;;;4959476;28;20062;-64
2023/11/19 11:01:54;;;;;;;8.27;2.38;;;12.90;99.90;;;;;;4959984;28;20034;-67
2023/11/19 11:04:24;;;;;;;5.50;2.30;;;13.10;99.90;;;;;;4960376;28;20153;-66
2023/11/19 11:06:53;;;;;;;10.90;2.15;;;13.10;99.90;;;;;;4962831;28;20042;-66
2023/11/19 11:09:20;;;;;;;11.27;3.05;;;13.30;99.90;;;;;;4961228;28;20400;-66
2023/11/19 11:11:47;;;;;;;7.75;2.35;;;13.50;99.90;;;;;;4961335;28;20794;-67
2023/11/19 11:14:16;;;;;;;17.20;2.58;;;13.70;99.90;;;;;;4960130;28;20063;-66
2023/11/19 11:16:44;;;;;;;7.72;1.88;;;13.70;99.90;;;;;;4965795;28;20043;-67
2023/11/19 11:19:12;;;;;;;6.10;2.40;;;13.70;99.90;;;;;;4965558;28;20118;-66
2023/11/19 11:21:42;;;;;;;6.18;1.80;;;13.90;99.90;;;;;;4962280;28;20506;-67
2023/11/19 11:24:13;;;;;;;13.60;5.32;;;13.80;99.90;;;;;;4962667;28;20074;-67
2023/11/19 11:27:02;;;;;;;9.27;3.63;;;13.90;99.90;;;;;;4959943;28;20061;-66
2023/11/19 11:29:45;;;;;;;11.18;4.47;;;13.70;99.90;;;;;;4917158;28;20126;-66
2023/11/19 11:32:23;;;;;;;5.72;3.50;;;13.70;99.90;;;;;;4967052;28;20034;-66
2023/11/19 11:35:14;;;;;;;9.57;3.13;;;13.60;99.90;;;;;;4965569;28;20518;-65
2023/11/19 11:37:55;;;;;;;10.85;3.45;;;13.60;99.90;;;;;;4962545;28;20041;-66
2023/11/19 11:40:23;;;;;;;12.65;3.08;;;13.70;99.90;;;;;;4959561;28;20023;-66
2023/11/19 11:42:51;;;;;;;10.43;4.05;;;13.70;99.90;;;;;;4965940;28;20042;-65
2023/11/19 11:45:19;;;;;;;7.13;4.10;;;13.70;99.90;;;;;;4948776;28;20146;-65
2023/11/19 11:47:54;;;;;;;9.57;3.08;;;13.70;99.90;;;;;;4965303;28;20027;-63
2023/11/19 11:50:20;;;;;;;10.55;2.58;;;13.90;99.90;;;;;;4964817;28;20077;-64
2023/11/19 11:52:59;;;;;;;12.25;3.17;;;13.90;99.90;;;;;;4963681;28;20101;-64
2023/11/19 11:55:36;;;;;;;7.60;2.53;;;13.80;99.90;;;;;;4963109;28;20038;-64
2023/11/19 11:58:04;;;;;;;12.43;2.85;;;13.80;99.90;;;;;;4962626;28;20030;-64
2023/11/19 12:00:37;;;;;;;7.13;2.20;;;13.80;99.90;;;;;;4964237;28;20126;-64
2023/11/19 12:03:07;;;;;;;12.30;3.38;;;13.80;99.90;;;;;;4951831;28;20384;-64
2023/11/19 12:05:34;;;;;;;10.48;2.65;;;13.70;99.90;;;;;;4963358;28;20062;-64
2023/11/19 12:08:02;;;;;;;8.00;2.25;;;13.70;99.90;;;;;;4961122;28;20503;-64
2023/11/19 12:10:32;;;;;;;13.75;3.58;;;13.60;99.90;;;;;;4961646;28;20027;-64
2023/11/19 12:13:01;;;;;;;11.70;2.55;;;13.50;99.90;;;;;;4960067;28;20050;-64
2023/11/19 12:15:28;;;;;;;11.63;2.60;;;13.40;99.90;;;;;;4959389;28;20034;-64
2023/11/19 12:17:55;;;;;;;14.77;2.35;;;13.40;99.90;;;;;;4962330;28;20118;-64
2023/11/19 12:20:25;;;;;;;14.25;2.40;;;13.40;99.90;;;;;;4961338;28;20062;-64
2023/11/19 12:22:53;;;;;;;7.05;2.33;;;13.40;99.90;;;;;;4963173;28;20041;-64
2023/11/19 12:25:20;;;;;;;12.25;2.75;;;13.50;99.90;;;;;;4964793;28;20057;-63
2023/11/19 12:27:48;;;;;;;12.18;2.95;;;13.50;99.90;;;;;;4960068;28;20553;-64
2023/11/19 12:30:24;;;;;;;12.32;3.25;;;13.50;99.90;;;;;;4963665;28;20098;-64
2023/11/19 12:32:50;;;;;;;12.63;2.40;;;13.50;99.90;;;;;;4960045;28;20085;-63
2023/11/19 12:35:16;;;;;;;9.93;2.80;;;13.60;99.90;;;;;;4964448;28;20506;-64
2023/11/19 12:37:44;;;;;;;14.88;3.92;;;13.50;99.90;;;;;;4962744;28;20049;-64
2023/11/19 12:40:14;;;;;;;11.05;3.00;;;13.50;99.90;;;;;;4962607;28;20030;-64
2023/11/19 12:42:41;;;;;;;10.02;2.35;;;13.50;99.90;;;;;;4965346;28;20052;-64
2023/11/19 12:45:10;;;;;;;15.55;2.78;;;13.50;99.90;;;;;;4963450;28;20047;-64
2023/11/19 12:47:37;;;;;;;10.38;2.70;;;13.50;99.90;;;;;;4963439;28;20084;-64
2023/11/19 12:50:03;;;;;;;9.85;2.33;;;13.40;99.90;;;;;;4963443;28;20045;-64
2023/11/19 12:52:30;;;;;;;11.05;2.33;;;13.30;99.90;;;;;;4963221;28;20060;-64
2023/11/19 12:54:58;;;;;;;17.95;3.53;;;13.30;99.90;;;;;;4964590;28;20094;-64